Time;durP1;ratioP1;P1;durP2;ratioP2;P2;SDS_P1;SDS_P2;PMS_P1;PMS_P2;Temp;Humidity;BMP_temperature;BMP_pressure;BME280_temperature;BME280_humidity;BME280_pressure;Samples;Min_cycle;Max_cycle;Signal;HPM_P1;HPM_P2
2023/09/08 00:01:17;;;;;;;13.07;10.02;;;12.00;99.90;;;;;;8202062;28;20508;-80
2023/09/08 00:05:18;;;;;;;12.80;9.18;;;12.00;99.90;;;;;;8184627;28;20050;-80
2023/09/08 00:09:19;;;;;;;14.70;10.25;;;11.90;99.90;;;;;;8201835;28;20015;-80
2023/09/08 00:13:20;;;;;;;13.43;10.10;;;11.80;99.90;;;;;;8196175;28;20038;-80
2023/09/08 00:17:20;;;;;;;17.80;11.70;;;11.80;99.90;;;;;;8201870;28;20530;-80
2023/09/08 00:21:21;;;;;;;14.20;11.20;;;11.90;99.90;;;;;;8208072;28;20024;-80
2023/09/08 00:25:21;;;;;;;13.90;10.35;;;12.00;99.90;;;;;;8206226;28;20023;-80
2023/09/08 00:29:22;;;;;;;12.27;9.82;;;12.10;99.90;;;;;;8174838;29;20023;-80
2023/09/08 00:33:22;;;;;;;15.75;10.73;;;12.10;99.90;;;;;;8187571;28;20029;-78
2023/09/08 00:37:24;;;;;;;13.05;10.52;;;12.00;99.90;;;;;;8188215;28;20046;-80
2023/09/08 00:41:24;;;;;;;14.65;11.32;;;12.10;99.90;;;;;;8193775;28;20041;-79
2023/09/08 00:45:29;;;;;;;21.58;11.48;;;12.10;99.90;;;;;;8210388;28;20373;-80
2023/09/08 00:49:29;;;;;;;16.85;10.30;;;12.10;99.90;;;;;;8201477;28;20071;-81
2023/09/08 00:53:30;;;;;;;19.17;11.13;;;12.10;99.90;;;;;;8195831;28;20012;-80
2023/09/08 00:57:31;;;;;;;17.58;9.98;;;12.00;99.90;;;;;;8189211;28;20027;-80
2023/09/08 01:01:31;;;;;;;17.42;12.50;;;11.90;99.90;;;;;;8217994;28;20020;-78
2023/09/08 01:05:32;;;;;;;15.45;11.18;;;11.80;99.90;;;;;;8204106;28;20602;-79
2023/09/08 01:09:34;;;;;;;16.40;11.05;;;11.90;99.90;;;;;;8218513;28;20036;-79
2023/09/08 01:13:35;;;;;;;18.30;12.30;;;11.90;99.90;;;;;;8178031;29;20054;-79
2023/09/08 01:17:35;;;;;;;18.85;13.32;;;11.90;99.90;;;;;;8191906;29;20024;-79
2023/09/08 01:21:52;;;;;;;16.73;13.00;;;11.90;99.90;;;;;;8209324;28;20506;-79
2023/09/08 01:26:10;;;;;;;18.83;11.38;;;11.90;99.90;;;;;;8214158;28;20403;-79
2023/09/08 01:30:12;;;;;;;17.30;12.38;;;11.80;99.90;;;;;;8203230;28;20024;-80
2023/09/08 01:34:13;;;;;;;17.75;12.95;;;11.80;99.90;;;;;;8197879;28;20023;-80
2023/09/08 01:38:14;;;;;;;14.60;11.23;;;11.80;99.90;;;;;;8187145;29;20040;-79
2023/09/08 01:42:14;;;;;;;15.23;11.00;;;11.70;99.90;;;;;;8191344;28;20039;-78
2023/09/08 01:46:15;;;;;;;16.52;11.75;;;11.60;99.90;;;;;;8176889;28;20563;-79
2023/09/08 01:50:21;;;;;;;19.20;11.82;;;11.50;99.90;;;;;;8175129;29;20074;-78
2023/09/08 01:54:22;;;;;;;15.73;11.55;;;11.50;99.90;;;;;;8191598;29;20034;-78
2023/09/08 01:58:22;;;;;;;18.35;12.00;;;11.60;99.90;;;;;;8183187;29;20661;-78
2023/09/08 02:02:23;;;;;;;21.52;12.25;;;11.50;99.90;;;;;;8200184;28;20069;-79
2023/09/08 02:06:23;;;;;;;19.13;12.98;;;11.40;99.90;;;;;;8182284;28;20033;-79
2023/09/08 02:10:24;;;;;;;15.93;12.50;;;11.40;99.90;;;;;;8196849;28;20156;-79
2023/09/08 02:14:24;;;;;;;14.52;11.25;;;11.40;99.90;;;;;;8207890;28;20040;-79
2023/09/08 02:18:26;;;;;;;14.70;10.85;;;11.20;99.90;;;;;;8200090;28;20500;-78
2023/09/08 02:22:26;;;;;;;16.15;11.48;;;11.20;99.90;;;;;;8175911;29;20027;-80
2023/09/08 02:26:27;;;;;;;18.80;13.02;;;11.10;99.90;;;;;;8193180;28;20054;-79
2023/09/08 02:30:27;;;;;;;18.30;12.02;;;11.20;99.90;;;;;;8213215;28;20019;-79
2023/09/08 02:34:28;;;;;;;17.27;11.77;;;11.20;99.90;;;;;;8178087;28;20114;-80
2023/09/08 02:38:29;;;;;;;17.77;12.70;;;11.10;99.90;;;;;;8179951;29;20397;-79
2023/09/08 02:42:29;;;;;;;17.70;11.57;;;11.10;99.90;;;;;;8193849;28;20050;-80
2023/09/08 02:46:30;;;;;;;19.23;13.18;;;11.00;99.90;;;;;;8189740;28;20082;-79
2023/09/08 02:50:30;;;;;;;21.20;14.02;;;10.90;99.90;;;;;;8189789;28;20070;-79
2023/09/08 02:54:31;;;;;;;18.00;13.38;;;10.90;99.90;;;;;;8243650;23;20047;-87
2023/09/08 02:58:33;;;;;;;22.98;13.80;;;11.00;99.90;;;;;;8211250;28;20023;-86
2023/09/08 03:02:33;;;;;;;23.15;14.25;;;11.00;99.90;;;;;;8194778;28;20019;-86
2023/09/08 03:06:35;;;;;;;20.23;13.45;;;11.00;99.90;;;;;;8211038;28;20037;-85
2023/09/08 03:10:35;;;;;;;19.95;12.23;;;11.00;99.90;;;;;;8212192;28;20491;-87
2023/09/08 03:14:36;;;;;;;13.20;9.05;;;11.00;99.90;;;;;;8203361;28;20050;-85
2023/09/08 03:18:37;;;;;;;13.48;10.38;;;11.10;99.90;;;;;;8222368;28;20023;-85
2023/09/08 03:22:38;;;;;;;15.30;10.23;;;10.90;99.90;;;;;;8213090;28;20031;-86
2023/09/08 03:26:40;;;;;;;22.23;12.15;;;10.70;99.90;;;;;;8214294;28;20031;-86
2023/09/08 03:30:40;;;;;;;17.48;11.77;;;10.70;99.90;;;;;;8192857;28;20062;-85
2023/09/08 03:34:41;;;;;;;18.95;12.35;;;10.70;99.90;;;;;;8218322;28;20027;-85
2023/09/08 03:38:41;;;;;;;15.23;11.73;;;10.60;99.90;;;;;;8211571;28;20416;-86
2023/09/08 03:42:42;;;;;;;18.55;11.77;;;10.50;99.90;;;;;;8203785;28;20046;-85
2023/09/08 03:46:43;;;;;;;16.65;12.10;;;10.50;99.90;;;;;;8211719;28;20063;-89
2023/09/08 03:50:45;;;;;;;19.42;12.57;;;10.50;99.90;;;;;;8202836;28;20089;-86
2023/09/08 03:54:46;;;;;;;20.17;13.65;;;10.50;99.90;;;;;;8203276;28;20030;-86
2023/09/08 03:58:47;;;;;;;22.20;14.63;;;10.50;99.90;;;;;;8219559;28;20031;-87
2023/09/08 04:02:49;;;;;;;24.75;15.75;;;10.50;99.90;;;;;;8218884;28;20042;-85
2023/09/08 04:06:50;;;;;;;23.55;14.10;;;10.60;99.90;;;;;;8209197;28;20034;-85
2023/09/08 04:10:50;;;;;;;17.02;12.52;;;10.70;99.90;;;;;;8209038;28;20509;-85
2023/09/08 04:14:51;;;;;;;16.70;11.40;;;10.50;99.90;;;;;;8202689;28;20443;-88
2023/09/08 04:18:51;;;;;;;16.52;12.63;;;10.50;99.90;;;;;;8217635;28;20038;-85
2023/09/08 04:22:52;;;;;;;17.25;12.18;;;10.40;99.90;;;;;;8205540;28;20046;-85
2023/09/08 04:26:52;;;;;;;16.55;11.60;;;10.40;99.90;;;;;;8196020;28;20492;-87
2023/09/08 04:30:53;;;;;;;20.35;13.05;;;10.30;99.90;;;;;;8205775;28;20035;-86
2023/09/08 04:34:53;;;;;;;20.15;13.57;;;10.30;99.90;;;;;;8197798;28;20027;-86
2023/09/08 04:38:54;;;;;;;23.13;14.95;;;10.30;99.90;;;;;;8210014;28;20427;-85
2023/09/08 04:42:54;;;;;;;21.92;13.80;;;10.40;99.90;;;;;;8210174;28;20038;-84
2023/09/08 04:46:55;;;;;;;19.17;13.45;;;10.40;99.90;;;;;;8211749;28;20058;-81
2023/09/08 04:50:57;;;;;;;20.20;13.52;;;10.50;99.90;;;;;;8219237;28;20102;-81
2023/09/08 04:54:57;;;;;;;19.30;13.30;;;10.40;99.90;;;;;;8203127;28;20042;-83
2023/09/08 04:59:00;;;;;;;19.50;13.43;;;10.40;99.90;;;;;;8205052;28;20051;-81
2023/09/08 05:03:01;;;;;;;19.15;13.45;;;10.40;99.90;;;;;;8218470;28;20173;-82
2023/09/08 05:07:01;;;;;;;17.10;12.32;;;10.50;99.90;;;;;;8211375;28;20035;-82
2023/09/08 05:11:02;;;;;;;21.88;12.07;;;10.60;99.90;;;;;;8223536;28;20061;-82
2023/09/08 05:15:10;;;;;;;16.70;10.68;;;10.70;99.90;;;;;;8222117;28;20050;-82
2023/09/08 05:19:10;;;;;;;19.63;11.52;;;10.70;99.90;;;;;;8225732;28;20031;-81
2023/09/08 05:23:11;;;;;;;18.10;10.73;;;10.70;99.90;;;;;;8220416;28;20498;-81
2023/09/08 05:27:11;;;;;;;10.88;8.13;;;10.90;99.90;;;;;;8217089;28;20027;-82
2023/09/08 05:31:12;;;;;;;11.63;9.15;;;11.00;99.90;;;;;;8214519;28;20041;-81
2023/09/08 05:35:12;;;;;;;11.27;8.95;;;11.20;99.90;;;;;;8220268;28;20030;-81
2023/09/08 05:39:15;;;;;;;11.27;9.00;;;11.30;99.90;;;;;;8200174;28;20061;-80
2023/09/08 05:43:15;;;;;;;11.38;9.55;;;11.30;99.90;;;;;;8203282;28;20031;-81
2023/09/08 05:47:16;;;;;;;17.13;11.48;;;11.40;99.90;;;;;;8210243;28;20542;-80
2023/09/08 05:51:17;;;;;;;27.55;18.02;;;11.50;99.90;;;;;;8211702;28;20071;-81
2023/09/08 05:55:17;;;;;;;21.42;15.57;;;11.60;99.90;;;;;;8198383;28;20047;-81
2023/09/08 05:59:18;;;;;;;12.88;11.27;;;11.80;99.90;;;;;;8211069;28;20042;-82
2023/09/08 06:03:19;;;;;;;40.10;11.90;;;11.90;99.90;;;;;;8215483;28;20034;-82
2023/09/08 06:07:19;;;;;;;16.00;10.82;;;12.10;99.90;;;;;;8225981;28;20023;-83
2023/09/08 06:11:20;;;;;;;15.60;11.05;;;12.30;99.90;;;;;;8220519;28;20029;-84
2023/09/08 06:15:20;;;;;;;13.50;11.43;;;12.30;99.90;;;;;;8221658;28;20042;-83
2023/09/08 06:19:21;;;;;;;20.13;14.40;;;12.40;99.90;;;;;;8212873;28;20024;-82
2023/09/08 06:23:22;;;;;;;16.83;11.75;;;12.60;99.90;;;;;;8210004;28;20487;-81
2023/09/08 06:27:22;;;;;;;22.05;14.00;;;12.70;99.90;;;;;;8220072;28;20023;-82
2023/09/08 06:31:23;;;;;;;16.13;12.63;;;12.90;99.90;;;;;;8217546;28;20019;-82
2023/09/08 06:35:26;;;;;;;17.50;12.90;;;13.50;99.90;;;;;;8219983;28;20033;-82
2023/09/08 06:39:26;;;;;;;18.13;11.63;;;13.80;99.90;;;;;;8218652;28;20380;-82
2023/09/08 06:43:27;;;;;;;14.73;11.48;;;14.10;99.90;;;;;;8216382;28;20031;-81
2023/09/08 06:47:28;;;;;;;16.48;12.30;;;14.10;99.90;;;;;;8209804;28;20407;-82
2023/09/08 06:51:28;;;;;;;16.70;12.73;;;14.30;99.90;;;;;;8206779;28;20054;-81
2023/09/08 06:55:29;;;;;;;16.45;13.02;;;14.50;99.90;;;;;;8210901;28;20062;-81
2023/09/08 06:59:29;;;;;;;18.15;14.48;;;14.50;99.90;;;;;;8221987;28;20027;-81
2023/09/08 07:03:36;;;;;;;20.23;15.52;;;14.60;99.90;;;;;;8209554;28;20627;-82
2023/09/08 07:07:37;;;;;;;20.20;16.67;;;14.70;99.90;;;;;;8233372;28;20050;-82
2023/09/08 07:11:38;;;;;;;23.10;15.73;;;15.20;99.90;;;;;;8233113;28;20047;-80
2023/09/08 07:15:38;;;;;;;22.90;16.05;;;15.60;99.90;;;;;;8235137;28;20027;-81
2023/09/08 07:19:39;;;;;;;19.65;15.27;;;15.90;99.90;;;;;;8233259;28;20035;-80
2023/09/08 07:23:39;;;;;;;21.77;17.55;;;16.20;99.90;;;;;;8232091;28;20087;-81
2023/09/08 07:27:40;;;;;;;20.27;16.58;;;16.60;99.90;;;;;;8232638;28;20495;-81
2023/09/08 07:31:40;;;;;;;20.45;16.92;;;16.40;99.90;;;;;;8233900;28;20023;-81
2023/09/08 07:35:41;;;;;;;21.13;15.98;;;16.70;99.90;;;;;;8231908;28;20026;-81
2023/09/08 07:39:41;;;;;;;20.83;16.65;;;17.10;99.90;;;;;;8232547;28;20065;-82
2023/09/08 07:43:44;;;;;;;25.08;18.38;;;17.90;99.90;;;;;;8232599;28;20031;-80
2023/09/08 07:47:45;;;;;;;26.40;18.15;;;18.20;99.90;;;;;;8232866;28;20084;-81
2023/09/08 07:51:45;;;;;;;23.75;18.55;;;18.60;99.90;;;;;;8230573;28;20027;-81
2023/09/08 07:55:46;;;;;;;23.40;18.15;;;18.90;99.90;;;;;;8232461;28;20403;-81
2023/09/08 07:59:46;;;;;;;23.67;17.75;;;19.30;99.90;;;;;;8231081;28;20110;-80
2023/09/08 08:03:47;;;;;;;24.50;18.23;;;19.40;99.90;;;;;;8229740;28;20031;-81
2023/09/08 08:07:48;;;;;;;23.42;17.85;;;19.90;99.90;;;;;;8231990;28;20483;-81
2023/09/08 08:11:49;;;;;;;23.23;17.45;;;20.20;99.90;;;;;;8232130;28;20019;-81
2023/09/08 08:15:49;;;;;;;18.45;15.32;;;21.00;99.90;;;;;;8232149;28;20053;-81
2023/09/08 08:19:50;;;;;;;19.25;14.00;;;21.70;99.90;;;;;;8231496;28;20027;-82
2023/09/08 08:23:51;;;;;;;15.18;13.23;;;22.20;99.90;;;;;;8231984;28;20501;-81
2023/09/08 08:27:52;;;;;;;15.13;12.63;;;23.00;99.90;;;;;;8231860;28;20498;-81
2023/09/08 08:31:52;;;;;;;17.38;12.77;;;23.00;99.90;;;;;;8230292;28;20113;-82
2023/09/08 08:35:53;;;;;;;15.90;12.48;;;23.10;99.90;;;;;;8231209;28;20055;-83
2023/09/08 08:39:54;;;;;;;14.32;12.55;;;22.80;99.90;;;;;;8230230;28;20027;-81
2023/09/08 08:43:56;;;;;;;14.48;12.90;;;22.90;99.90;;;;;;8230382;28;20026;-81
2023/09/08 08:47:57;;;;;;;13.10;11.70;;;23.30;99.90;;;;;;8230279;28;20113;-81
2023/09/08 08:52:00;;;;;;;13.18;11.60;;;24.00;99.90;;;;;;8229916;28;20054;-81
2023/09/08 08:56:01;;;;;;;15.05;11.07;;;24.20;99.90;;;;;;8230595;28;20034;-82
2023/09/08 09:00:05;;;;;;;17.50;11.75;;;24.40;99.90;;;;;;8229815;28;20143;-82
2023/09/08 09:04:06;;;;;;;28.50;15.18;;;24.90;99.90;;;;;;8230272;28;20027;-81
2023/09/08 09:08:08;;;;;;;13.65;11.20;;;25.20;99.90;;;;;;8230290;28;20104;-82
2023/09/08 09:12:08;;;;;;;13.13;11.50;;;25.10;99.90;;;;;;8230219;28;20031;-83
2023/09/08 09:16:10;;;;;;;13.02;10.90;;;25.30;99.90;;;;;;8229644;28;20038;-82
2023/09/08 09:20:20;;;;;;;13.32;10.65;;;25.60;99.90;;;;;;8235159;28;20380;-81
2023/09/08 09:24:38;;;;;;;14.63;11.52;;;25.70;99.90;;;;;;8736235;23;20029;-81
2023/09/08 09:28:48;;;;;;;11.32;10.10;;;25.50;99.90;;;;;;8212456;28;20420;-81
2023/09/08 09:33:02;;;;;;;12.32;9.93;;;25.80;99.90;;;;;;8196482;28;20399;-82
2023/09/08 09:37:05;;;;;;;11.02;9.60;;;26.10;99.90;;;;;;8228207;28;20059;-82
2023/09/08 09:41:05;;;;;;;10.15;8.73;;;26.30;99.90;;;;;;8228717;28;20031;-83
2023/09/08 09:45:07;;;;;;;10.35;9.05;;;26.30;99.90;;;;;;8233755;28;20045;-82
2023/09/08 09:49:11;;;;;;;11.48;9.05;;;26.90;99.90;;;;;;8217755;28;20042;-81
2023/09/08 09:53:14;;;;;;;10.80;8.60;;;27.20;99.90;;;;;;8223740;28;20098;-82
2023/09/08 09:57:14;;;;;;;9.77;8.65;;;27.00;99.90;;;;;;8223341;28;20050;-81
2023/09/08 10:01:16;;;;;;;8.77;7.88;;;27.00;99.90;;;;;;8219065;28;20027;-81
2023/09/08 10:05:17;;;;;;;13.43;9.57;;;26.80;99.90;;;;;;8221484;28;20118;-81
2023/09/08 10:09:19;;;;;;;9.48;8.15;;;26.90;99.90;;;;;;8222891;28;20031;-81
2023/09/08 10:13:28;;;;;;;8.90;8.10;;;27.10;99.90;;;;;;8210728;28;20050;-82
2023/09/08 10:17:30;;;;;;;12.85;9.05;;;27.30;99.90;;;;;;8211372;28;20107;-81
2023/09/08 10:21:33;;;;;;;11.18;8.40;;;28.20;99.90;;;;;;8219716;28;20059;-82
2023/09/08 10:25:37;;;;;;;12.23;8.07;;;29.20;99.90;;;;;;8213301;28;20057;-82
2023/09/08 10:29:39;;;;;;;11.98;8.10;;;29.10;99.90;;;;;;8221050;28;20713;-80
2023/09/08 10:33:40;;;;;;;9.00;6.72;;;29.40;99.90;;;;;;8210040;28;20030;-80
2023/09/08 10:37:41;;;;;;;10.02;7.80;;;30.60;99.90;;;;;;8207630;28;20034;-80
2023/09/08 10:41:42;;;;;;;10.30;7.60;;;30.80;99.90;;;;;;8208239;28;20403;-80
2023/09/08 10:45:43;;;;;;;9.70;7.65;;;30.70;99.90;;;;;;8194996;28;20031;-79
2023/09/08 10:49:43;;;;;;;10.52;8.23;;;31.50;99.90;;;;;;8197495;28;20038;-80
2023/09/08 10:53:47;;;;;;;10.93;8.60;;;30.90;99.90;;;;;;8188381;28;20023;-82
2023/09/08 10:57:54;;;;;;;9.57;7.72;;;31.40;99.90;;;;;;8196085;28;20066;-82
2023/09/08 11:01:55;;;;;;;8.13;7.32;;;31.00;99.90;;;;;;8199831;28;20023;-82
2023/09/08 11:05:57;;;;;;;9.70;8.48;;;31.60;99.90;;;;;;8214492;28;20100;-81
2023/09/08 11:09:57;;;;;;;12.27;7.90;;;30.80;99.90;;;;;;8200106;28;20547;-82
2023/09/08 11:13:59;;;;;;;10.30;8.18;;;31.10;99.90;;;;;;8216585;28;20072;-82
2023/09/08 11:18:05;;;;;;;9.02;7.88;;;31.40;99.90;;;;;;8190521;28;20082;-82
2023/09/08 11:22:06;;;;;;;10.32;7.55;;;31.20;99.90;;;;;;8221807;28;20064;-81
2023/09/08 11:26:08;;;;;;;9.70;8.73;;;32.70;99.90;;;;;;8202467;28;20130;-82
2023/09/08 11:30:09;;;;;;;11.55;7.70;;;33.70;99.90;;;;;;8201586;28;20498;-82
2023/09/08 11:34:13;;;;;;;9.43;6.72;;;33.90;99.90;;;;;;8201268;28;20023;-81
2023/09/08 11:38:14;;;;;;;10.40;7.28;;;33.90;99.90;;;;;;8203323;28;20027;-82
2023/09/08 11:42:15;;;;;;;8.52;7.10;;;34.50;99.90;;;;;;8200271;28;20031;-82
2023/09/08 11:46:17;;;;;;;8.93;7.78;;;35.20;99.20;;;;;;8215934;28;20027;-81
2023/09/08 11:50:18;;;;;;;8.75;7.28;;;35.70;97.60;;;;;;8185904;28;20047;-82
2023/09/08 11:54:19;;;;;;;9.43;7.57;;;35.80;97.10;;;;;;8190731;28;20129;-82
2023/09/08 11:58:20;;;;;;;8.68;7.55;;;36.30;94.00;;;;;;8185361;28;20031;-82
2023/09/08 12:02:21;;;;;;;8.52;6.90;;;36.00;92.60;;;;;;8206835;28;20046;-82
2023/09/08 12:06:28;;;;;;;7.85;6.72;;;36.10;93.00;;;;;;8201497;28;20121;-82
2023/09/08 12:10:29;;;;;;;10.95;7.00;;;36.10;94.80;;;;;;8186417;28;20035;-81
2023/09/08 12:14:30;;;;;;;10.82;6.93;;;35.80;94.10;;;;;;8212033;28;20051;-82
2023/09/08 12:18:39;;;;;;;10.05;6.80;;;33.70;96.90;;;;;;8202864;28;20042;-82
2023/09/08 12:22:48;;;;;;;9.05;6.68;;;34.10;96.10;;;;;;8187780;28;20522;-82
2023/09/08 12:26:49;;;;;;;9.27;7.13;;;35.60;94.90;;;;;;8187802;28;20415;-82
2023/09/08 12:30:50;;;;;;;9.77;6.80;;;35.20;94.30;;;;;;8207916;28;20258;-82
2023/09/08 12:34:52;;;;;;;8.57;6.93;;;35.50;91.90;;;;;;8215496;28;20037;-82
2023/09/08 12:38:53;;;;;;;9.18;6.63;;;35.30;94.10;;;;;;8207906;28;20114;-82
2023/09/08 12:42:53;;;;;;;7.82;5.90;;;35.80;92.20;;;;;;8212933;28;20027;-82
2023/09/08 12:46:54;;;;;;;7.50;6.00;;;36.90;90.10;;;;;;8211684;28;20400;-82
2023/09/08 12:50:54;;;;;;;6.90;5.70;;;35.90;90.00;;;;;;8218874;28;20026;-83
2023/09/08 12:54:55;;;;;;;10.77;5.82;;;37.20;87.10;;;;;;8207574;28;20487;-83
2023/09/08 12:58:55;;;;;;;10.68;5.68;;;38.30;85.30;;;;;;8216455;28;20484;-84
2023/09/08 13:02:56;;;;;;;6.72;6.03;;;39.10;80.10;;;;;;8218756;28;20023;-83
2023/09/08 13:06:58;;;;;;;7.18;6.25;;;39.60;76.50;;;;;;8219849;28;20054;-84
2023/09/08 13:10:58;;;;;;;7.30;5.60;;;39.80;73.10;;;;;;8226484;28;20022;-84
2023/09/08 13:14:59;;;;;;;6.32;5.57;;;38.80;75.60;;;;;;8229834;28;20023;-84
2023/09/08 13:19:00;;;;;;;7.43;5.60;;;40.00;74.50;;;;;;8224192;28;20496;-84
2023/09/08 13:23:00;;;;;;;6.07;5.05;;;39.60;71.20;;;;;;8222566;28;20046;-83
2023/09/08 13:27:01;;;;;;;6.05;5.45;;;38.80;69.90;;;;;;8217821;28;20031;-83
2023/09/08 13:31:02;;;;;;;5.78;5.22;;;38.50;71.30;;;;;;8223119;28;20031;-83
2023/09/08 13:35:03;;;;;;;8.10;5.45;;;39.40;74.60;;;;;;8201226;28;20046;-83
2023/09/08 13:39:03;;;;;;;8.80;5.30;;;40.60;68.10;;;;;;8221846;28;20045;-83
2023/09/08 13:43:04;;;;;;;6.10;5.15;;;40.90;64.10;;;;;;8220827;28;20051;-83
2023/09/08 13:47:04;;;;;;;7.07;5.50;;;40.60;65.40;;;;;;8205868;28;20443;-83
2023/09/08 13:51:05;;;;;;;7.63;5.38;;;39.10;66.60;;;;;;8224485;28;20571;-83
2023/09/08 13:55:06;;;;;;;5.88;5.32;;;39.40;65.70;;;;;;8192875;28;20043;-83
2023/09/08 13:59:08;;;;;;;7.93;5.80;;;40.90;66.40;;;;;;8208134;28;20030;-83
2023/09/08 14:03:09;;;;;;;6.40;5.60;;;41.60;64.70;;;;;;8203676;28;20027;-83
2023/09/08 14:07:09;;;;;;;6.60;5.20;;;41.40;63.70;;;;;;8214784;28;20850;-82
2023/09/08 14:11:12;;;;;;;8.75;5.05;;;41.00;60.80;;;;;;8226466;28;20536;-82
2023/09/08 14:15:15;;;;;;;12.38;5.03;;;41.80;61.90;;;;;;8190520;28;20027;-83
2023/09/08 14:19:15;;;;;;;7.10;5.30;;;43.00;56.80;;;;;;8210426;28;20107;-83
2023/09/08 14:23:16;;;;;;;7.32;5.47;;;43.10;58.60;;;;;;8210835;28;20027;-84
2023/09/08 14:27:16;;;;;;;6.20;4.78;;;42.40;56.80;;;;;;8217322;28;20034;-83
2023/09/08 14:31:17;;;;;;;5.43;4.93;;;41.90;58.30;;;;;;8209778;28;20035;-83
2023/09/08 14:35:17;;;;;;;6.97;5.35;;;42.30;59.40;;;;;;8184892;28;20122;-82
2023/09/08 14:39:18;;;;;;;15.52;5.97;;;41.90;58.70;;;;;;8212049;28;20023;-83
2023/09/08 14:43:19;;;;;;;8.48;5.78;;;41.50;56.80;;;;;;8211447;28;20022;-82
2023/09/08 14:47:19;;;;;;;6.85;6.05;;;38.30;65.90;;;;;;8222640;28;20059;-82
2023/09/08 14:51:20;;;;;;;9.00;5.57;;;37.60;65.40;;;;;;8196868;28;20085;-83
2023/09/08 14:55:20;;;;;;;8.02;5.32;;;37.80;63.20;;;;;;8227793;28;20027;-82
2023/09/08 14:59:21;;;;;;;5.90;4.95;;;38.50;62.60;;;;;;8202659;28;20019;-82
2023/09/08 15:03:22;;;;;;;7.18;6.03;;;38.60;61.10;;;;;;8203730;28;20098;-82
2023/09/08 15:07:22;;;;;;;6.13;5.53;;;36.90;65.10;;;;;;8186495;28;20031;-82
2023/09/08 15:11:23;;;;;;;8.23;5.63;;;33.80;76.70;;;;;;8208169;28;20062;-82
2023/09/08 15:15:23;;;;;;;7.28;5.57;;;31.60;79.40;;;;;;8217923;28;20396;-82
2023/09/08 15:19:24;;;;;;;6.72;6.03;;;30.50;83.50;;;;;;8220235;28;20082;-82
2023/09/08 15:23:25;;;;;;;9.70;6.10;;;29.90;90.00;;;;;;8208963;28;20019;-82
2023/09/08 15:27:26;;;;;;;7.22;6.28;;;29.30;93.60;;;;;;8217861;28;20042;-83
2023/09/08 15:31:26;;;;;;;9.20;6.63;;;28.80;93.90;;;;;;8192153;28;20399;-82
2023/09/08 15:35:27;;;;;;;12.00;6.10;;;28.70;95.00;;;;;;8209738;28;20031;-82
2023/09/08 15:39:27;;;;;;;7.32;6.35;;;29.60;95.50;;;;;;8214242;28;20019;-79
2023/09/08 15:43:28;;;;;;;8.75;6.10;;;31.00;92.80;;;;;;8210462;28;20038;-79
2023/09/08 15:47:28;;;;;;;8.50;6.00;;;32.50;86.40;;;;;;8202171;28;20027;-79
2023/09/08 15:51:29;;;;;;;8.98;6.30;;;33.20;89.70;;;;;;8198159;28;20035;-80
2023/09/08 15:55:29;;;;;;;7.53;6.53;;;32.00;90.00;;;;;;8207099;28;20055;-79
2023/09/08 15:59:30;;;;;;;7.82;6.30;;;31.20;93.40;;;;;;8213255;28;20018;-79
2023/09/08 16:03:31;;;;;;;6.95;6.22;;;29.80;92.50;;;;;;8192642;28;20069;-78
2023/09/08 16:07:32;;;;;;;11.63;6.60;;;28.90;96.80;;;;;;8199153;28;20032;-79
2023/09/08 16:11:33;;;;;;;7.38;6.20;;;28.00;98.90;;;;;;8196697;28;20063;-80
2023/09/08 16:15:33;;;;;;;9.18;7.00;;;27.40;99.10;;;;;;8212552;28;20027;-78
2023/09/08 16:19:34;;;;;;;7.05;6.35;;;27.00;99.90;;;;;;8209284;28;20019;-80
2023/09/08 16:23:34;;;;;;;8.57;6.57;;;26.50;99.90;;;;;;8211509;28;20058;-80
2023/09/08 16:27:35;;;;;;;9.35;6.57;;;26.20;99.90;;;;;;8205457;28;20113;-79
2023/09/08 16:31:36;;;;;;;12.60;6.68;;;26.00;99.90;;;;;;8201372;28;20399;-80
2023/09/08 16:35:37;;;;;;;11.50;7.05;;;26.00;99.90;;;;;;8219237;28;20105;-79
2023/09/08 16:39:37;;;;;;;11.20;7.30;;;26.00;99.90;;;;;;8222305;28;20034;-80
2023/09/08 16:43:38;;;;;;;8.93;6.88;;;25.60;99.90;;;;;;8197128;28;20023;-81
2023/09/08 16:47:38;;;;;;;11.90;7.15;;;25.40;99.90;;;;;;8196447;28;20517;-81
2023/09/08 16:51:39;;;;;;;7.43;6.70;;;25.00;99.90;;;;;;8200185;28;20019;-80
2023/09/08 16:55:39;;;;;;;8.35;6.90;;;24.60;99.90;;;;;;8205945;28;20033;-79
2023/09/08 16:59:40;;;;;;;9.75;6.85;;;24.20;99.90;;;;;;8204441;28;20030;-80
2023/09/08 17:03:41;;;;;;;8.63;7.13;;;23.90;99.90;;;;;;8200123;28;20019;-81
2023/09/08 17:07:43;;;;;;;8.90;7.07;;;23.80;99.90;;;;;;8217742;28;20023;-81
2023/09/08 17:11:43;;;;;;;9.05;7.65;;;23.50;99.90;;;;;;8198723;28;20023;-81
2023/09/08 17:15:44;;;;;;;9.55;7.50;;;23.30;99.90;;;;;;8204935;28;20090;-81
2023/09/08 17:19:44;;;;;;;8.82;7.70;;;23.20;99.90;;;;;;8210420;28;20780;-80
2023/09/08 17:23:45;;;;;;;9.02;7.47;;;23.10;99.90;;;;;;8218491;28;20026;-80
2023/09/08 17:27:45;;;;;;;8.80;7.38;;;22.90;99.90;;;;;;8217721;28;20113;-79
2023/09/08 17:31:46;;;;;;;9.85;7.55;;;22.70;99.90;;;;;;8206551;28;20030;-81
2023/09/08 17:35:47;;;;;;;9.50;7.45;;;22.50;99.90;;;;;;8200804;28;20411;-80
2023/09/08 17:39:48;;;;;;;8.32;7.53;;;22.40;99.90;;;;;;8206474;28;20645;-80
2023/09/08 17:43:48;;;;;;;9.25;7.65;;;22.30;99.90;;;;;;8203639;28;20027;-79
2023/09/08 17:47:49;;;;;;;10.65;8.20;;;22.10;99.90;;;;;;8187347;28;20027;-83
2023/09/08 17:51:50;;;;;;;9.07;7.85;;;22.00;99.90;;;;;;8194745;28;20027;-84
2023/09/08 17:55:50;;;;;;;8.43;7.47;;;21.90;99.90;;;;;;8200951;28;20075;-84
2023/09/08 17:59:51;;;;;;;8.57;7.65;;;21.60;99.90;;;;;;8217509;28;20487;-82
2023/09/08 18:03:51;;;;;;;9.60;7.75;;;21.50;99.90;;;;;;8194694;28;20050;-84
2023/09/08 18:07:52;;;;;;;10.70;8.35;;;21.20;99.90;;;;;;8224125;28;20022;-83
2023/09/08 18:11:52;;;;;;;8.35;7.55;;;21.00;99.90;;;;;;8192242;28;20538;-84
2023/09/08 18:16:03;;;;;;;13.52;8.18;;;20.70;99.90;;;;;;8216065;28;20023;-83
2023/09/08 18:20:04;;;;;;;9.85;8.05;;;20.60;99.90;;;;;;8217472;28;20027;-83
2023/09/08 18:24:05;;;;;;;11.30;7.82;;;20.50;99.90;;;;;;8228470;28;20037;-83
2023/09/08 18:28:07;;;;;;;9.15;8.13;;;20.50;99.90;;;;;;8202879;28;20042;-83
2023/09/08 18:32:07;;;;;;;11.15;8.52;;;20.60;99.90;;;;;;8222785;28;20054;-83
2023/09/08 18:36:08;;;;;;;11.70;8.90;;;20.30;99.90;;;;;;8213510;28;20031;-84
2023/09/08 18:40:09;;;;;;;10.23;8.57;;;20.00;99.90;;;;;;8202511;28;20019;-83
2023/09/08 18:44:10;;;;;;;14.68;8.75;;;19.80;99.90;;;;;;8221362;28;20023;-83
2023/09/08 18:48:10;;;;;;;9.93;8.93;;;19.60;99.90;;;;;;8221175;28;20026;-84
2023/09/08 18:52:11;;;;;;;13.90;9.80;;;19.40;99.90;;;;;;8202035;28;20557;-83
2023/09/08 18:56:13;;;;;;;9.63;8.63;;;19.40;99.90;;;;;;8195775;28;20034;-84
2023/09/08 19:00:14;;;;;;;12.00;9.50;;;19.20;99.90;;;;;;8207859;28;20031;-83
2023/09/08 19:04:15;;;;;;;12.88;9.95;;;19.00;99.90;;;;;;8212017;28;20487;-84
2023/09/08 19:08:15;;;;;;;11.20;8.82;;;19.00;99.90;;;;;;8206022;28;20019;-84
2023/09/08 19:12:16;;;;;;;11.73;9.60;;;19.00;99.90;;;;;;8206939;28;20145;-84
2023/09/08 19:16:16;;;;;;;10.38;8.85;;;18.90;99.90;;;;;;8203263;28;20055;-83
2023/09/08 19:20:17;;;;;;;13.02;10.52;;;18.70;99.90;;;;;;8217554;28;20027;-83
2023/09/08 19:24:17;;;;;;;12.95;10.27;;;18.60;99.90;;;;;;8215853;28;20487;-84
2023/09/08 19:28:18;;;;;;;15.07;11.00;;;18.60;99.90;;;;;;8214655;28;20023;-83
2023/09/08 19:32:18;;;;;;;12.98;10.55;;;18.60;99.90;;;;;;8221256;28;20027;-82
2023/09/08 19:36:19;;;;;;;12.98;11.10;;;18.50;99.90;;;;;;8235534;28;20072;-83
2023/09/08 19:40:19;;;;;;;13.65;10.55;;;18.60;99.90;;;;;;8218747;28;20029;-83
2023/09/08 19:44:20;;;;;;;13.73;11.10;;;18.70;99.90;;;;;;8208554;28;20488;-83
2023/09/08 19:48:20;;;;;;;12.73;10.55;;;18.60;99.90;;;;;;8190151;28;20031;-84
2023/09/08 19:52:21;;;;;;;13.45;10.65;;;18.50;99.90;;;;;;8197911;28;20030;-81
2023/09/08 19:56:22;;;;;;;12.95;10.68;;;18.40;99.90;;;;;;8225601;28;20023;-83
2023/09/08 20:00:22;;;;;;;13.00;11.18;;;18.10;99.90;;;;;;8205521;28;20027;-82
2023/09/08 20:04:23;;;;;;;12.73;10.88;;;18.00;99.90;;;;;;8204583;28;20510;-83
2023/09/08 20:08:23;;;;;;;13.40;10.68;;;18.00;99.90;;;;;;8207091;28;20027;-83
2023/09/08 20:12:24;;;;;;;17.30;13.10;;;18.00;99.90;;;;;;8217544;28;20046;-83
2023/09/08 20:16:24;;;;;;;15.82;13.07;;;17.80;99.90;;;;;;8200799;28;20023;-83
2023/09/08 20:20:25;;;;;;;15.43;12.98;;;17.70;99.90;;;;;;8221785;28;20031;-83
2023/09/08 20:24:25;;;;;;;15.68;12.85;;;17.60;99.90;;;;;;8189134;28;20027;-83
2023/09/08 20:28:26;;;;;;;19.23;12.30;;;17.40;99.90;;;;;;8213638;28;20024;-83
2023/09/08 20:32:26;;;;;;;15.27;12.32;;;17.40;99.90;;;;;;8207962;28;20050;-83
2023/09/08 20:36:27;;;;;;;15.77;12.55;;;17.40;99.90;;;;;;8213203;28;20058;-83